sensor_id;sensor_type;location;lat;lon;timestamp;temperature;humidity
54518;DHT22;40423;53.176;6.002;2022-10-16T00:00:36;13.30;99.90
54518;DHT22;40423;53.176;6.002;2022-10-16T00:03:03;12.90;99.90
54518;DHT22;40423;53.176;6.002;2022-10-16T00:05:29;12.90;99.90
54518;DHT22;40423;53.176;6.002;2022-10-16T00:07:55;12.90;99.90
54518;DHT22;40423;53.176;6.002;2022-10-16T00:10:21;12.80;99.90
54518;DHT22;40423;53.176;6.002;2022-10-16T00:12:47;12.80;99.90
54518;DHT22;40423;53.176;6.002;2022-10-16T00:15:14;12.80;99.90
54518;DHT22;40423;53.176;6.002;2022-10-16T00:17:40;12.80;99.90
54518;DHT22;40423;53.176;6.002;2022-10-16T00:20:06;12.80;99.90
54518;DHT22;40423;53.176;6.002;2022-10-16T00:22:32;12.70;99.90
54518;DHT22;40423;53.176;6.002;2022-10-16T00:24:58;12.70;99.90
54518;DHT22;40423;53.176;6.002;2022-10-16T00:27:24;12.70;99.90
54518;DHT22;40423;53.176;6.002;2022-10-16T00:29:50;12.70;99.90
54518;DHT22;40423;53.176;6.002;2022-10-16T00:32:17;12.70;99.90
54518;DHT22;40423;53.176;6.002;2022-10-16T00:34:43;12.70;99.90
54518;DHT22;40423;53.176;6.002;2022-10-16T00:37:09;12.70;99.90
54518;DHT22;40423;53.176;6.002;2022-10-16T00:39:35;12.70;99.90
54518;DHT22;40423;53.176;6.002;2022-10-16T00:42:01;12.70;99.90
54518;DHT22;40423;53.176;6.002;2022-10-16T00:47:12;12.70;99.90
54518;DHT22;40423;53.176;6.002;2022-10-16T00:49:39;12.70;99.90
54518;DHT22;40423;53.176;6.002;2022-10-16T00:52:05;12.70;99.90
54518;DHT22;40423;53.176;6.002;2022-10-16T00:54:32;12.70;99.90
54518;DHT22;40423;53.176;6.002;2022-10-16T00:57:01;12.70;99.90
54518;DHT22;40423;53.176;6.002;2022-10-16T00:59:30;12.70;99.90
54518;DHT22;40423;53.176;6.002;2022-10-16T01:01:57;12.70;99.90
54518;DHT22;40423;53.176;6.002;2022-10-16T01:04:24;12.70;99.90
54518;DHT22;40423;53.176;6.002;2022-10-16T01:09:37;12.80;99.90
54518;DHT22;40423;53.176;6.002;2022-10-16T01:14:54;12.80;99.90
54518;DHT22;40423;53.176;6.002;2022-10-16T01:17:34;12.80;99.90
54518;DHT22;40423;53.176;6.002;2022-10-16T01:20:10;12.80;99.90
54518;DHT22;40423;53.176;6.002;2022-10-16T01:23:22;12.90;99.90
54518;DHT22;40423;53.176;6.002;2022-10-16T01:28:11;12.90;99.90
54518;DHT22;40423;53.176;6.002;2022-10-16T01:30:40;12.90;99.90
54518;DHT22;40423;53.176;6.002;2022-10-16T01:33:35;12.90;99.90
54518;DHT22;40423;53.176;6.002;2022-10-16T01:36:05;13.00;99.90
54518;DHT22;40423;53.176;6.002;2022-10-16T01:38:40;13.00;99.90
54518;DHT22;40423;53.176;6.002;2022-10-16T01:41:15;13.00;99.90
54518;DHT22;40423;53.176;6.002;2022-10-16T01:43:49;13.00;99.90
54518;DHT22;40423;53.176;6.002;2022-10-16T01:46:18;13.00;99.90
54518;DHT22;40423;53.176;6.002;2022-10-16T01:48:46;13.00;99.90
54518;DHT22;40423;53.176;6.002;2022-10-16T01:51:15;13.00;99.90
54518;DHT22;40423;53.176;6.002;2022-10-16T01:53:44;13.10;99.90
54518;DHT22;40423;53.176;6.002;2022-10-16T01:56:15;13.10;99.90
54518;DHT22;40423;53.176;6.002;2022-10-16T01:58:45;13.10;99.90
54518;DHT22;40423;53.176;6.002;2022-10-16T02:01:15;13.10;99.90
54518;DHT22;40423;53.176;6.002;2022-10-16T02:03:43;13.10;99.90
54518;DHT22;40423;53.176;6.002;2022-10-16T02:06:10;13.10;99.90
54518;DHT22;40423;53.176;6.002;2022-10-16T02:08:36;13.10;99.90
54518;DHT22;40423;53.176;6.002;2022-10-16T02:11:02;13.10;99.90
54518;DHT22;40423;53.176;6.002;2022-10-16T02:15:56;13.10;99.90
54518;DHT22;40423;53.176;6.002;2022-10-16T02:18:22;13.10;99.90
54518;DHT22;40423;53.176;6.002;2022-10-16T02:20:55;13.10;99.90
54518;DHT22;40423;53.176;6.002;2022-10-16T02:26:15;13.10;99.90
54518;DHT22;40423;53.176;6.002;2022-10-16T02:28:50;13.10;99.90
54518;DHT22;40423;53.176;6.002;2022-10-16T02:31:22;13.10;99.90
54518;DHT22;40423;53.176;6.002;2022-10-16T02:33:51;13.10;99.90
54518;DHT22;40423;53.176;6.002;2022-10-16T02:36:18;13.10;99.90
54518;DHT22;40423;53.176;6.002;2022-10-16T02:38:44;13.10;99.90
54518;DHT22;40423;53.176;6.002;2022-10-16T02:41:10;13.10;99.90
54518;DHT22;40423;53.176;6.002;2022-10-16T02:43:35;13.10;99.90
54518;DHT22;40423;53.176;6.002;2022-10-16T02:46:01;13.10;99.90
54518;DHT22;40423;53.176;6.002;2022-10-16T02:48:27;13.10;99.90
54518;DHT22;40423;53.176;6.002;2022-10-16T02:50:53;13.00;99.90
54518;DHT22;40423;53.176;6.002;2022-10-16T02:53:18;13.00;99.90
54518;DHT22;40423;53.176;6.002;2022-10-16T02:55:44;13.00;99.90
54518;DHT22;40423;53.176;6.002;2022-10-16T02:58:10;13.00;99.90
54518;DHT22;40423;53.176;6.002;2022-10-16T03:00:35;13.00;99.90
54518;DHT22;40423;53.176;6.002;2022-10-16T03:03:01;13.00;99.90
54518;DHT22;40423;53.176;6.002;2022-10-16T03:05:27;12.90;99.90
54518;DHT22;40423;53.176;6.002;2022-10-16T03:07:53;13.00;99.90
54518;DHT22;40423;53.176;6.002;2022-10-16T03:10:18;12.90;99.90
54518;DHT22;40423;53.176;6.002;2022-10-16T03:12:44;12.90;99.90
54518;DHT22;40423;53.176;6.002;2022-10-16T03:15:10;12.90;99.90
54518;DHT22;40423;53.176;6.002;2022-10-16T03:17:36;12.90;99.90
54518;DHT22;40423;53.176;6.002;2022-10-16T03:20:02;12.80;99.90
54518;DHT22;40423;53.176;6.002;2022-10-16T03:22:28;12.80;99.90
54518;DHT22;40423;53.176;6.002;2022-10-16T03:24:54;12.80;99.90
54518;DHT22;40423;53.176;6.002;2022-10-16T03:27:20;12.90;99.90
54518;DHT22;40423;53.176;6.002;2022-10-16T03:29:45;12.90;99.90
54518;DHT22;40423;53.176;6.002;2022-10-16T03:32:11;12.90;99.90
54518;DHT22;40423;53.176;6.002;2022-10-16T03:34:37;12.90;99.90
54518;DHT22;40423;53.176;6.002;2022-10-16T03:37:03;12.90;99.90
54518;DHT22;40423;53.176;6.002;2022-10-16T03:39:28;12.90;99.90
54518;DHT22;40423;53.176;6.002;2022-10-16T03:41:54;12.90;99.90
54518;DHT22;40423;53.176;6.002;2022-10-16T03:44:20;12.90;99.90
54518;DHT22;40423;53.176;6.002;2022-10-16T03:46:45;12.90;99.90
54518;DHT22;40423;53.176;6.002;2022-10-16T03:49:11;12.90;99.90
54518;DHT22;40423;53.176;6.002;2022-10-16T03:51:37;12.90;99.90
54518;DHT22;40423;53.176;6.002;2022-10-16T03:54:02;12.90;99.90
54518;DHT22;40423;53.176;6.002;2022-10-16T03:56:28;12.80;99.90
54518;DHT22;40423;53.176;6.002;2022-10-16T03:58:54;12.90;99.90
54518;DHT22;40423;53.176;6.002;2022-10-16T04:01:20;12.80;99.90
54518;DHT22;40423;53.176;6.002;2022-10-16T04:03:45;12.90;99.90
54518;DHT22;40423;53.176;6.002;2022-10-16T04:06:11;12.80;99.90
54518;DHT22;40423;53.176;6.002;2022-10-16T04:08:37;12.90;99.90
54518;DHT22;40423;53.176;6.002;2022-10-16T04:11:04;12.90;99.90
54518;DHT22;40423;53.176;6.002;2022-10-16T04:13:30;12.90;99.90
54518;DHT22;40423;53.176;6.002;2022-10-16T04:15:56;12.90;99.90
54518;DHT22;40423;53.176;6.002;2022-10-16T04:18:21;12.90;99.90
54518;DHT22;40423;53.176;6.002;2022-10-16T04:20:47;13.00;99.90
54518;DHT22;40423;53.176;6.002;2022-10-16T04:23:13;13.00;99.90
54518;DHT22;40423;53.176;6.002;2022-10-16T04:25:38;13.00;99.90
54518;DHT22;40423;53.176;6.002;2022-10-16T04:28:04;13.00;99.90
54518;DHT22;40423;53.176;6.002;2022-10-16T04:30:30;13.00;99.90
54518;DHT22;40423;53.176;6.002;2022-10-16T04:32:56;13.10;99.90
54518;DHT22;40423;53.176;6.002;2022-10-16T04:35:22;13.10;99.90
54518;DHT22;40423;53.176;6.002;2022-10-16T04:37:47;13.10;99.90
54518;DHT22;40423;53.176;6.002;2022-10-16T04:40:13;13.10;99.90
54518;DHT22;40423;53.176;6.002;2022-10-16T04:42:40;13.10;99.90
54518;DHT22;40423;53.176;6.002;2022-10-16T04:45:06;13.10;99.90
54518;DHT22;40423;53.176;6.002;2022-10-16T04:47:33;13.20;99.90
54518;DHT22;40423;53.176;6.002;2022-10-16T04:49:58;13.20;99.90
54518;DHT22;40423;53.176;6.002;2022-10-16T04:52:28;13.20;99.90
54518;DHT22;40423;53.176;6.002;2022-10-16T04:54:53;13.20;99.90
54518;DHT22;40423;53.176;6.002;2022-10-16T04:57:20;13.10;99.90
54518;DHT22;40423;53.176;6.002;2022-10-16T04:59:46;13.20;99.90
54518;DHT22;40423;53.176;6.002;2022-10-16T05:02:12;13.20;99.90
54518;DHT22;40423;53.176;6.002;2022-10-16T05:04:37;13.20;99.90
54518;DHT22;40423;53.176;6.002;2022-10-16T05:07:03;13.20;99.90
54518;DHT22;40423;53.176;6.002;2022-10-16T05:09:29;13.20;99.90
54518;DHT22;40423;53.176;6.002;2022-10-16T05:11:54;13.20;99.90
54518;DHT22;40423;53.176;6.002;2022-10-16T05:14:20;13.20;99.90
54518;DHT22;40423;53.176;6.002;2022-10-16T05:16:46;13.20;99.90
54518;DHT22;40423;53.176;6.002;2022-10-16T05:19:13;13.20;99.90
54518;DHT22;40423;53.176;6.002;2022-10-16T05:21:39;13.20;99.90
54518;DHT22;40423;53.176;6.002;2022-10-16T05:24:04;13.20;99.90
54518;DHT22;40423;53.176;6.002;2022-10-16T05:26:30;13.20;99.90
54518;DHT22;40423;53.176;6.002;2022-10-16T05:28:56;13.20;99.90
54518;DHT22;40423;53.176;6.002;2022-10-16T05:31:21;13.20;99.90
54518;DHT22;40423;53.176;6.002;2022-10-16T05:33:47;13.20;99.90
54518;DHT22;40423;53.176;6.002;2022-10-16T05:36:13;13.20;99.90
54518;DHT22;40423;53.176;6.002;2022-10-16T05:38:39;13.20;99.90
54518;DHT22;40423;53.176;6.002;2022-10-16T05:41:05;13.20;99.90
54518;DHT22;40423;53.176;6.002;2022-10-16T05:43:32;13.20;99.90
54518;DHT22;40423;53.176;6.002;2022-10-16T05:46:00;13.20;99.90
54518;DHT22;40423;53.176;6.002;2022-10-16T05:48:27;13.10;99.90
54518;DHT22;40423;53.176;6.002;2022-10-16T05:51:07;13.10;99.90
54518;DHT22;40423;53.176;6.002;2022-10-16T05:53:36;13.10;99.90
54518;DHT22;40423;53.176;6.002;2022-10-16T05:56:03;13.10;99.90
54518;DHT22;40423;53.176;6.002;2022-10-16T05:58:33;13.10;99.90
54518;DHT22;40423;53.176;6.002;2022-10-16T06:01:05;13.10;99.90
54518;DHT22;40423;53.176;6.002;2022-10-16T06:03:33;13.10;99.90
54518;DHT22;40423;53.176;6.002;2022-10-16T06:05:59;13.10;99.90
54518;DHT22;40423;53.176;6.002;2022-10-16T06:08:25;13.10;99.90
54518;DHT22;40423;53.176;6.002;2022-10-16T06:11:07;13.20;99.90
54518;DHT22;40423;53.176;6.002;2022-10-16T06:13:33;13.20;99.90
54518;DHT22;40423;53.176;6.002;2022-10-16T06:16:00;13.20;99.90
54518;DHT22;40423;53.176;6.002;2022-10-16T06:18:27;13.20;99.90
54518;DHT22;40423;53.176;6.002;2022-10-16T06:20:54;13.20;99.90
54518;DHT22;40423;53.176;6.002;2022-10-16T06:23:21;13.20;99.90
54518;DHT22;40423;53.176;6.002;2022-10-16T06:25:46;13.20;99.90
54518;DHT22;40423;53.176;6.002;2022-10-16T06:28:14;13.30;99.90
54518;DHT22;40423;53.176;6.002;2022-10-16T06:30:40;13.20;99.90
54518;DHT22;40423;53.176;6.002;2022-10-16T06:33:05;13.30;99.90
54518;DHT22;40423;53.176;6.002;2022-10-16T06:35:31;13.30;99.90
54518;DHT22;40423;53.176;6.002;2022-10-16T06:37:57;13.30;99.90
54518;DHT22;40423;53.176;6.002;2022-10-16T06:40:23;13.30;99.90
54518;DHT22;40423;53.176;6.002;2022-10-16T06:42:49;13.30;99.90
54518;DHT22;40423;53.176;6.002;2022-10-16T06:45:15;13.40;99.90
54518;DHT22;40423;53.176;6.002;2022-10-16T06:47:41;13.40;99.90
54518;DHT22;40423;53.176;6.002;2022-10-16T06:50:07;13.40;99.90
54518;DHT22;40423;53.176;6.002;2022-10-16T06:52:33;13.40;99.90
54518;DHT22;40423;53.176;6.002;2022-10-16T06:55:06;13.50;99.90
54518;DHT22;40423;53.176;6.002;2022-10-16T06:57:32;13.50;99.90
54518;DHT22;40423;53.176;6.002;2022-10-16T06:59:57;13.50;99.90
54518;DHT22;40423;53.176;6.002;2022-10-16T07:02:23;13.50;99.90
54518;DHT22;40423;53.176;6.002;2022-10-16T07:04:48;13.40;99.90
54518;DHT22;40423;53.176;6.002;2022-10-16T07:07:14;13.40;99.90
54518;DHT22;40423;53.176;6.002;2022-10-16T07:09:40;13.40;99.90
54518;DHT22;40423;53.176;6.002;2022-10-16T07:12:06;13.50;99.90
54518;DHT22;40423;53.176;6.002;2022-10-16T07:14:31;13.50;99.90
54518;DHT22;40423;53.176;6.002;2022-10-16T07:16:57;13.50;99.90
54518;DHT22;40423;53.176;6.002;2022-10-16T07:19:23;13.50;99.90
54518;DHT22;40423;53.176;6.002;2022-10-16T07:21:50;13.50;99.90
54518;DHT22;40423;53.176;6.002;2022-10-16T07:24:16;13.50;99.90
54518;DHT22;40423;53.176;6.002;2022-10-16T07:26:44;13.50;99.90
54518;DHT22;40423;53.176;6.002;2022-10-16T07:29:17;13.50;99.90
54518;DHT22;40423;53.176;6.002;2022-10-16T07:31:44;13.40;99.90
54518;DHT22;40423;53.176;6.002;2022-10-16T07:34:11;13.40;99.90
54518;DHT22;40423;53.176;6.002;2022-10-16T07:36:37;13.40;99.90
54518;DHT22;40423;53.176;6.002;2022-10-16T07:39:03;13.40;99.90
54518;DHT22;40423;53.176;6.002;2022-10-16T07:41:29;13.40;99.90
54518;DHT22;40423;53.176;6.002;2022-10-16T07:43:56;13.50;99.90
54518;DHT22;40423;53.176;6.002;2022-10-16T07:46:26;13.50;99.90
54518;DHT22;40423;53.176;6.002;2022-10-16T07:48:52;13.50;99.90
54518;DHT22;40423;53.176;6.002;2022-10-16T07:51:21;13.50;99.90
54518;DHT22;40423;53.176;6.002;2022-10-16T07:53:48;13.60;99.90
54518;DHT22;40423;53.176;6.002;2022-10-16T07:56:15;13.60;99.90
54518;DHT22;40423;53.176;6.002;2022-10-16T07:58:41;13.60;99.90
54518;DHT22;40423;53.176;6.002;2022-10-16T08:01:12;13.70;99.90
54518;DHT22;40423;53.176;6.002;2022-10-16T08:03:41;13.70;99.90
54518;DHT22;40423;53.176;6.002;2022-10-16T08:06:07;13.80;99.90
54518;DHT22;40423;53.176;6.002;2022-10-16T08:08:32;13.80;99.90
54518;DHT22;40423;53.176;6.002;2022-10-16T08:10:59;13.90;99.90
54518;DHT22;40423;53.176;6.002;2022-10-16T08:13:24;13.90;99.90
54518;DHT22;40423;53.176;6.002;2022-10-16T08:15:53;13.90;99.90
54518;DHT22;40423;53.176;6.002;2022-10-16T08:18:19;13.90;99.90
54518;DHT22;40423;53.176;6.002;2022-10-16T08:20:45;13.90;99.90
54518;DHT22;40423;53.176;6.002;2022-10-16T08:23:13;13.90;99.90
54518;DHT22;40423;53.176;6.002;2022-10-16T08:25:40;14.00;99.90
54518;DHT22;40423;53.176;6.002;2022-10-16T08:28:07;14.00;99.90
54518;DHT22;40423;53.176;6.002;2022-10-16T08:30:33;14.00;99.90
54518;DHT22;40423;53.176;6.002;2022-10-16T08:33:00;14.00;99.90
54518;DHT22;40423;53.176;6.002;2022-10-16T08:35:26;14.00;99.90
54518;DHT22;40423;53.176;6.002;2022-10-16T08:37:51;13.90;99.90
54518;DHT22;40423;53.176;6.002;2022-10-16T08:40:24;13.90;99.90
54518;DHT22;40423;53.176;6.002;2022-10-16T08:50:45;14.10;99.90
54518;DHT22;40423;53.176;6.002;2022-10-16T08:53:17;14.10;99.90
54518;DHT22;40423;53.176;6.002;2022-10-16T08:55:50;14.20;99.90
54518;DHT22;40423;53.176;6.002;2022-10-16T08:58:19;14.40;99.90
54518;DHT22;40423;53.176;6.002;2022-10-16T09:00:53;14.50;99.90
54518;DHT22;40423;53.176;6.002;2022-10-16T09:03:24;14.70;99.90
54518;DHT22;40423;53.176;6.002;2022-10-16T09:22:42;15.40;99.90
54518;DHT22;40423;53.176;6.002;2022-10-16T09:25:16;15.40;99.90
54518;DHT22;40423;53.176;6.002;2022-10-16T09:27:46;15.50;99.90
54518;DHT22;40423;53.176;6.002;2022-10-16T09:30:18;15.60;99.90
54518;DHT22;40423;53.176;6.002;2022-10-16T09:32:47;15.70;99.90
54518;DHT22;40423;53.176;6.002;2022-10-16T09:35:18;15.80;99.90
54518;DHT22;40423;53.176;6.002;2022-10-16T09:37:48;15.90;99.90
54518;DHT22;40423;53.176;6.002;2022-10-16T09:40:32;16.00;99.90
54518;DHT22;40423;53.176;6.002;2022-10-16T09:46:04;16.10;99.90
54518;DHT22;40423;53.176;6.002;2022-10-16T09:48:37;16.20;99.90
54518;DHT22;40423;53.176;6.002;2022-10-16T09:51:13;16.20;99.90
54518;DHT22;40423;53.176;6.002;2022-10-16T09:53:43;16.10;99.90
54518;DHT22;40423;53.176;6.002;2022-10-16T09:56:21;16.10;99.90
54518;DHT22;40423;53.176;6.002;2022-10-16T09:58:56;16.00;99.90
54518;DHT22;40423;53.176;6.002;2022-10-16T10:01:35;16.00;99.90
54518;DHT22;40423;53.176;6.002;2022-10-16T10:04:03;16.10;99.90
54518;DHT22;40423;53.176;6.002;2022-10-16T10:09:28;16.20;99.90
54518;DHT22;40423;53.176;6.002;2022-10-16T10:11:59;16.30;99.90
54518;DHT22;40423;53.176;6.002;2022-10-16T10:14:31;16.40;99.90
54518;DHT22;40423;53.176;6.002;2022-10-16T10:19:38;16.80;99.90
54518;DHT22;40423;53.176;6.002;2022-10-16T10:24:45;16.80;99.90
54518;DHT22;40423;53.176;6.002;2022-10-16T10:27:19;16.80;99.90
54518;DHT22;40423;53.176;6.002;2022-10-16T10:29:53;16.70;99.90
54518;DHT22;40423;53.176;6.002;2022-10-16T10:32:41;16.60;99.90
54518;DHT22;40423;53.176;6.002;2022-10-16T10:40:52;16.30;99.90
54518;DHT22;40423;53.176;6.002;2022-10-16T10:46:12;16.20;99.90
54518;DHT22;40423;53.176;6.002;2022-10-16T10:54:27;16.20;99.90
54518;DHT22;40423;53.176;6.002;2022-10-16T10:57:10;16.40;99.90
54518;DHT22;40423;53.176;6.002;2022-10-16T11:02:41;16.80;99.90
54518;DHT22;40423;53.176;6.002;2022-10-16T11:11:00;16.70;99.90
54518;DHT22;40423;53.176;6.002;2022-10-16T11:15:57;16.90;99.90
54518;DHT22;40423;53.176;6.002;2022-10-16T11:18:50;17.00;99.90
54518;DHT22;40423;53.176;6.002;2022-10-16T11:21:19;16.90;99.90
54518;DHT22;40423;53.176;6.002;2022-10-16T11:26:33;16.60;99.90
54518;DHT22;40423;53.176;6.002;2022-10-16T11:29:01;16.60;99.90
54518;DHT22;40423;53.176;6.002;2022-10-16T11:31:36;16.70;99.90
54518;DHT22;40423;53.176;6.002;2022-10-16T11:34:13;16.80;99.90
54518;DHT22;40423;53.176;6.002;2022-10-16T11:39:29;17.10;99.90
54518;DHT22;40423;53.176;6.002;2022-10-16T11:42:09;17.30;99.90
54518;DHT22;40423;53.176;6.002;2022-10-16T11:44:59;17.50;99.90
54518;DHT22;40423;53.176;6.002;2022-10-16T11:50:45;17.70;99.90
54518;DHT22;40423;53.176;6.002;2022-10-16T11:53:28;17.70;99.90
54518;DHT22;40423;53.176;6.002;2022-10-16T11:55:57;17.80;99.90
54518;DHT22;40423;53.176;6.002;2022-10-16T11:58:34;17.70;99.90
54518;DHT22;40423;53.176;6.002;2022-10-16T12:03:49;17.80;99.90
54518;DHT22;40423;53.176;6.002;2022-10-16T12:06:36;17.90;99.90
54518;DHT22;40423;53.176;6.002;2022-10-16T12:09:03;17.80;99.90
54518;DHT22;40423;53.176;6.002;2022-10-16T12:16:37;17.50;99.90
54518;DHT22;40423;53.176;6.002;2022-10-16T12:19:12;17.70;99.90
54518;DHT22;40423;53.176;6.002;2022-10-16T12:21:39;17.60;99.90
54518;DHT22;40423;53.176;6.002;2022-10-16T12:24:05;17.90;99.90
54518;DHT22;40423;53.176;6.002;2022-10-16T12:26:33;17.90;99.90
54518;DHT22;40423;53.176;6.002;2022-10-16T12:29:26;17.80;99.90
54518;DHT22;40423;53.176;6.002;2022-10-16T12:31:53;18.10;99.90
54518;DHT22;40423;53.176;6.002;2022-10-16T12:34:32;18.20;99.90
54518;DHT22;40423;53.176;6.002;2022-10-16T12:37:19;18.20;99.90
54518;DHT22;40423;53.176;6.002;2022-10-16T12:39:47;17.80;99.90
54518;DHT22;40423;53.176;6.002;2022-10-16T12:44:52;17.70;99.90
54518;DHT22;40423;53.176;6.002;2022-10-16T12:49:57;17.50;99.90
54518;DHT22;40423;53.176;6.002;2022-10-16T12:52:34;17.40;99.90
54518;DHT22;40423;53.176;6.002;2022-10-16T12:55:00;17.30;99.90
54518;DHT22;40423;53.176;6.002;2022-10-16T13:15:07;17.20;99.90
54518;DHT22;40423;53.176;6.002;2022-10-16T13:20:29;17.60;99.90
54518;DHT22;40423;53.176;6.002;2022-10-16T13:23:02;17.70;99.90
54518;DHT22;40423;53.176;6.002;2022-10-16T13:28:14;17.70;99.90
54518;DHT22;40423;53.176;6.002;2022-10-16T13:30:43;17.60;99.90
54518;DHT22;40423;53.176;6.002;2022-10-16T13:35:55;17.60;99.90
54518;DHT22;40423;53.176;6.002;2022-10-16T13:38:23;17.50;99.90
54518;DHT22;40423;53.176;6.002;2022-10-16T13:41:04;17.50;99.90
54518;DHT22;40423;53.176;6.002;2022-10-16T13:43:50;17.70;99.90
54518;DHT22;40423;53.176;6.002;2022-10-16T13:46:19;17.80;99.90
54518;DHT22;40423;53.176;6.002;2022-10-16T13:48:56;17.90;99.90
54518;DHT22;40423;53.176;6.002;2022-10-16T13:51:22;17.90;99.90
54518;DHT22;40423;53.176;6.002;2022-10-16T13:53:48;17.80;99.90
54518;DHT22;40423;53.176;6.002;2022-10-16T13:56:17;17.80;99.90
54518;DHT22;40423;53.176;6.002;2022-10-16T13:58:44;17.60;99.90
54518;DHT22;40423;53.176;6.002;2022-10-16T14:01:23;17.50;99.90
54518;DHT22;40423;53.176;6.002;2022-10-16T14:03:50;17.40;99.90
54518;DHT22;40423;53.176;6.002;2022-10-16T14:06:19;17.20;99.90
54518;DHT22;40423;53.176;6.002;2022-10-16T14:08:59;17.10;99.90
54518;DHT22;40423;53.176;6.002;2022-10-16T14:11:26;17.00;99.90
54518;DHT22;40423;53.176;6.002;2022-10-16T14:13:52;17.00;99.90
54518;DHT22;40423;53.176;6.002;2022-10-16T14:16:24;17.10;99.90
54518;DHT22;40423;53.176;6.002;2022-10-16T14:18:59;17.10;99.90
54518;DHT22;40423;53.176;6.002;2022-10-16T14:21:26;17.10;99.90
54518;DHT22;40423;53.176;6.002;2022-10-16T14:23:53;17.10;99.90
54518;DHT22;40423;53.176;6.002;2022-10-16T14:26:22;16.90;99.90
54518;DHT22;40423;53.176;6.002;2022-10-16T14:29:03;16.80;99.90
54518;DHT22;40423;53.176;6.002;2022-10-16T14:31:33;16.80;99.90
54518;DHT22;40423;53.176;6.002;2022-10-16T14:34:01;16.90;99.90
54518;DHT22;40423;53.176;6.002;2022-10-16T14:36:28;16.80;99.90
54518;DHT22;40423;53.176;6.002;2022-10-16T14:39:01;16.80;99.90
54518;DHT22;40423;53.176;6.002;2022-10-16T14:41:29;16.70;99.90
54518;DHT22;40423;53.176;6.002;2022-10-16T14:43:56;16.70;99.90
54518;DHT22;40423;53.176;6.002;2022-10-16T14:46:37;16.60;99.90
54518;DHT22;40423;53.176;6.002;2022-10-16T14:49:17;16.50;99.90
54518;DHT22;40423;53.176;6.002;2022-10-16T14:51:45;16.50;99.90
54518;DHT22;40423;53.176;6.002;2022-10-16T14:54:13;16.50;99.90
54518;DHT22;40423;53.176;6.002;2022-10-16T14:59:22;16.40;99.90
54518;DHT22;40423;53.176;6.002;2022-10-16T15:01:50;16.40;99.90
54518;DHT22;40423;53.176;6.002;2022-10-16T15:04:16;16.40;99.90
54518;DHT22;40423;53.176;6.002;2022-10-16T15:06:43;16.40;99.90
54518;DHT22;40423;53.176;6.002;2022-10-16T15:09:08;16.40;99.90
54518;DHT22;40423;53.176;6.002;2022-10-16T15:11:34;16.40;99.90
54518;DHT22;40423;53.176;6.002;2022-10-16T15:14:01;16.40;99.90
54518;DHT22;40423;53.176;6.002;2022-10-16T15:16:26;16.40;99.90
54518;DHT22;40423;53.176;6.002;2022-10-16T15:18:52;16.30;99.90
54518;DHT22;40423;53.176;6.002;2022-10-16T15:21:31;16.40;99.90
54518;DHT22;40423;53.176;6.002;2022-10-16T15:23:57;16.40;99.90
54518;DHT22;40423;53.176;6.002;2022-10-16T15:26:25;16.40;99.90
54518;DHT22;40423;53.176;6.002;2022-10-16T15:28:51;16.30;99.90
54518;DHT22;40423;53.176;6.002;2022-10-16T15:31:17;16.30;99.90
54518;DHT22;40423;53.176;6.002;2022-10-16T15:33:43;16.30;99.90
54518;DHT22;40423;53.176;6.002;2022-10-16T15:36:13;16.20;99.90
54518;DHT22;40423;53.176;6.002;2022-10-16T15:38:39;16.20;99.90
54518;DHT22;40423;53.176;6.002;2022-10-16T15:41:04;16.10;99.90
54518;DHT22;40423;53.176;6.002;2022-10-16T15:43:30;16.10;99.90
54518;DHT22;40423;53.176;6.002;2022-10-16T15:48:27;16.00;99.90
54518;DHT22;40423;53.176;6.002;2022-10-16T15:50:53;15.90;99.90
54518;DHT22;40423;53.176;6.002;2022-10-16T15:53:18;15.80;99.90
54518;DHT22;40423;53.176;6.002;2022-10-16T15:55:44;15.70;99.90
54518;DHT22;40423;53.176;6.002;2022-10-16T15:58:10;15.70;99.90
54518;DHT22;40423;53.176;6.002;2022-10-16T16:00:35;15.70;99.90
54518;DHT22;40423;53.176;6.002;2022-10-16T16:03:01;15.70;99.90
54518;DHT22;40423;53.176;6.002;2022-10-16T16:05:27;15.70;99.90
54518;DHT22;40423;53.176;6.002;2022-10-16T16:07:53;15.70;99.90
54518;DHT22;40423;53.176;6.002;2022-10-16T16:10:19;15.60;99.90
54518;DHT22;40423;53.176;6.002;2022-10-16T16:12:49;15.60;99.90
54518;DHT22;40423;53.176;6.002;2022-10-16T16:15:18;15.50;99.90
54518;DHT22;40423;53.176;6.002;2022-10-16T16:17:44;15.50;99.90
54518;DHT22;40423;53.176;6.002;2022-10-16T16:20:11;15.40;99.90
54518;DHT22;40423;53.176;6.002;2022-10-16T16:22:37;15.30;99.90
54518;DHT22;40423;53.176;6.002;2022-10-16T16:25:03;15.30;99.90
54518;DHT22;40423;53.176;6.002;2022-10-16T16:27:29;15.20;99.90
54518;DHT22;40423;53.176;6.002;2022-10-16T16:29:58;15.20;99.90
54518;DHT22;40423;53.176;6.002;2022-10-16T16:32:24;15.10;99.90
54518;DHT22;40423;53.176;6.002;2022-10-16T16:34:50;15.00;99.90
54518;DHT22;40423;53.176;6.002;2022-10-16T16:37:16;15.00;99.90
54518;DHT22;40423;53.176;6.002;2022-10-16T16:39:42;14.90;99.90
54518;DHT22;40423;53.176;6.002;2022-10-16T16:42:08;14.80;99.90
54518;DHT22;40423;53.176;6.002;2022-10-16T16:44:36;14.80;99.90
54518;DHT22;40423;53.176;6.002;2022-10-16T16:47:03;14.70;99.90
54518;DHT22;40423;53.176;6.002;2022-10-16T16:49:29;14.70;99.90
54518;DHT22;40423;53.176;6.002;2022-10-16T16:51:54;14.60;99.90
54518;DHT22;40423;53.176;6.002;2022-10-16T16:54:20;14.60;99.90
54518;DHT22;40423;53.176;6.002;2022-10-16T16:56:46;14.50;99.90
54518;DHT22;40423;53.176;6.002;2022-10-16T16:59:14;14.40;99.90
54518;DHT22;40423;53.176;6.002;2022-10-16T17:01:40;14.40;99.90
54518;DHT22;40423;53.176;6.002;2022-10-16T17:04:07;14.30;99.90
54518;DHT22;40423;53.176;6.002;2022-10-16T17:06:33;14.20;99.90
54518;DHT22;40423;53.176;6.002;2022-10-16T17:09:01;14.20;99.90
54518;DHT22;40423;53.176;6.002;2022-10-16T17:11:28;14.10;99.90
54518;DHT22;40423;53.176;6.002;2022-10-16T17:13:56;14.10;99.90
54518;DHT22;40423;53.176;6.002;2022-10-16T17:16:23;14.10;99.90
54518;DHT22;40423;53.176;6.002;2022-10-16T17:18:49;14.10;99.90
54518;DHT22;40423;53.176;6.002;2022-10-16T17:21:15;14.00;99.90
54518;DHT22;40423;53.176;6.002;2022-10-16T17:23:41;14.00;99.90
54518;DHT22;40423;53.176;6.002;2022-10-16T17:26:16;13.90;99.90
54518;DHT22;40423;53.176;6.002;2022-10-16T17:28:43;13.90;99.90
54518;DHT22;40423;53.176;6.002;2022-10-16T17:31:14;13.80;99.90
54518;DHT22;40423;53.176;6.002;2022-10-16T17:33:41;13.80;99.90
54518;DHT22;40423;53.176;6.002;2022-10-16T17:36:08;13.80;99.90
54518;DHT22;40423;53.176;6.002;2022-10-16T17:38:34;13.80;99.90
54518;DHT22;40423;53.176;6.002;2022-10-16T17:41:18;13.80;99.90
54518;DHT22;40423;53.176;6.002;2022-10-16T17:43:44;13.80;99.90
54518;DHT22;40423;53.176;6.002;2022-10-16T17:46:11;13.70;99.90
54518;DHT22;40423;53.176;6.002;2022-10-16T17:48:38;13.70;99.90